sensor_id;sensor_type;location;lat;lon;timestamp;temperature;humidity
11132;DHT22;5620;53.570;9.718;2023-02-28T00:01:26;6.40;85.50
11132;DHT22;5620;53.570;9.718;2023-02-28T00:03:53;6.40;85.90
11132;DHT22;5620;53.570;9.718;2023-02-28T00:06:20;6.30;86.40
11132;DHT22;5620;53.570;9.718;2023-02-28T00:08:48;6.30;88.80
11132;DHT22;5620;53.570;9.718;2023-02-28T00:11:16;6.30;87.00
11132;DHT22;5620;53.570;9.718;2023-02-28T00:13:48;6.30;86.90
11132;DHT22;5620;53.570;9.718;2023-02-28T00:16:18;6.30;87.50
11132;DHT22;5620;53.570;9.718;2023-02-28T00:18:46;6.30;87.60
11132;DHT22;5620;53.570;9.718;2023-02-28T00:21:13;6.20;88.00
11132;DHT22;5620;53.570;9.718;2023-02-28T00:23:38;6.20;88.40
11132;DHT22;5620;53.570;9.718;2023-02-28T00:26:04;6.10;88.90
11132;DHT22;5620;53.570;9.718;2023-02-28T00:28:32;6.10;89.00
11132;DHT22;5620;53.570;9.718;2023-02-28T00:30:57;6.10;89.70
11132;DHT22;5620;53.570;9.718;2023-02-28T00:33:24;6.10;89.50
11132;DHT22;5620;53.570;9.718;2023-02-28T00:36:06;6.20;94.60
11132;DHT22;5620;53.570;9.718;2023-02-28T00:38:33;6.20;90.20
11132;DHT22;5620;53.570;9.718;2023-02-28T00:40:59;6.10;90.20
11132;DHT22;5620;53.570;9.718;2023-02-28T00:43:27;6.10;90.30
11132;DHT22;5620;53.570;9.718;2023-02-28T00:45:54;6.10;90.40
11132;DHT22;5620;53.570;9.718;2023-02-28T00:48:19;6.10;90.40
11132;DHT22;5620;53.570;9.718;2023-02-28T00:50:48;6.20;90.60
11132;DHT22;5620;53.570;9.718;2023-02-28T00:53:15;6.20;90.80
11132;DHT22;5620;53.570;9.718;2023-02-28T00:55:41;6.10;90.90
11132;DHT22;5620;53.570;9.718;2023-02-28T00:58:07;6.20;91.10
11132;DHT22;5620;53.570;9.718;2023-02-28T01:00:34;6.20;90.90
11132;DHT22;5620;53.570;9.718;2023-02-28T01:03:01;6.20;91.10
11132;DHT22;5620;53.570;9.718;2023-02-28T01:05:26;6.20;91.10
11132;DHT22;5620;53.570;9.718;2023-02-28T01:07:53;6.20;91.20
11132;DHT22;5620;53.570;9.718;2023-02-28T01:10:19;6.20;91.10
11132;DHT22;5620;53.570;9.718;2023-02-28T01:12:46;6.10;96.00
11132;DHT22;5620;53.570;9.718;2023-02-28T01:15:11;6.10;91.50
11132;DHT22;5620;53.570;9.718;2023-02-28T01:17:37;6.00;91.60
11132;DHT22;5620;53.570;9.718;2023-02-28T01:20:03;6.00;92.00
11132;DHT22;5620;53.570;9.718;2023-02-28T01:22:30;6.00;94.10
11132;DHT22;5620;53.570;9.718;2023-02-28T01:24:57;6.00;92.60
11132;DHT22;5620;53.570;9.718;2023-02-28T01:27:25;5.90;92.80
11132;DHT22;5620;53.570;9.718;2023-02-28T01:29:51;5.80;93.20
11132;DHT22;5620;53.570;9.718;2023-02-28T01:32:16;5.70;93.20
11132;DHT22;5620;53.570;9.718;2023-02-28T01:34:42;5.60;93.70
11132;DHT22;5620;53.570;9.718;2023-02-28T01:37:08;5.60;93.80
11132;DHT22;5620;53.570;9.718;2023-02-28T01:39:36;5.60;94.10
11132;DHT22;5620;53.570;9.718;2023-02-28T01:42:02;5.60;94.20
11132;DHT22;5620;53.570;9.718;2023-02-28T01:47:36;5.70;94.60
11132;DHT22;5620;53.570;9.718;2023-02-28T01:50:07;5.70;94.70
11132;DHT22;5620;53.570;9.718;2023-02-28T01:52:36;5.70;94.90
11132;DHT22;5620;53.570;9.718;2023-02-28T01:55:05;5.70;95.20
11132;DHT22;5620;53.570;9.718;2023-02-28T01:57:44;5.70;95.50
11132;DHT22;5620;53.570;9.718;2023-02-28T02:00:17;5.80;95.70
11132;DHT22;5620;53.570;9.718;2023-02-28T02:02:51;5.80;95.80
11132;DHT22;5620;53.570;9.718;2023-02-28T02:05:25;5.80;95.80
11132;DHT22;5620;53.570;9.718;2023-02-28T02:07:56;5.80;95.80
11132;DHT22;5620;53.570;9.718;2023-02-28T02:10:47;5.70;96.40
11132;DHT22;5620;53.570;9.718;2023-02-28T02:19:26;5.80;97.00
11132;DHT22;5620;53.570;9.718;2023-02-28T02:26:09;5.80;97.40
11132;DHT22;5620;53.570;9.718;2023-02-28T02:37:13;5.80;98.00
11132;DHT22;5620;53.570;9.718;2023-02-28T02:43:02;5.80;98.80
11132;DHT22;5620;53.570;9.718;2023-02-28T02:48:20;5.80;99.30
11132;DHT22;5620;53.570;9.718;2023-02-28T02:50:55;5.80;99.30
11132;DHT22;5620;53.570;9.718;2023-02-28T02:53:26;5.80;99.70
11132;DHT22;5620;53.570;9.718;2023-02-28T02:55:55;5.80;99.80
11132;DHT22;5620;53.570;9.718;2023-02-28T02:58:29;5.80;99.90
11132;DHT22;5620;53.570;9.718;2023-02-28T03:01:03;5.70;99.90
11132;DHT22;5620;53.570;9.718;2023-02-28T03:03:35;5.60;99.90
11132;DHT22;5620;53.570;9.718;2023-02-28T03:06:02;5.60;99.90
11132;DHT22;5620;53.570;9.718;2023-02-28T03:08:34;5.60;99.90
11132;DHT22;5620;53.570;9.718;2023-02-28T03:11:06;5.50;99.90
11132;DHT22;5620;53.570;9.718;2023-02-28T03:19:42;5.10;99.90
11132;DHT22;5620;53.570;9.718;2023-02-28T03:28:41;4.90;99.90
11132;DHT22;5620;53.570;9.718;2023-02-28T03:37:07;4.70;99.90
11132;DHT22;5620;53.570;9.718;2023-02-28T03:39:55;4.50;99.90
11132;DHT22;5620;53.570;9.718;2023-02-28T03:42:26;4.50;99.90
11132;DHT22;5620;53.570;9.718;2023-02-28T03:45:10;4.40;99.90
11132;DHT22;5620;53.570;9.718;2023-02-28T03:48:02;4.30;99.90
11132;DHT22;5620;53.570;9.718;2023-02-28T03:50:37;4.20;99.90
11132;DHT22;5620;53.570;9.718;2023-02-28T03:53:27;4.00;99.90
11132;DHT22;5620;53.570;9.718;2023-02-28T03:56:06;3.90;99.90
11132;DHT22;5620;53.570;9.718;2023-02-28T03:58:35;3.70;99.90
11132;DHT22;5620;53.570;9.718;2023-02-28T04:04:08;3.40;99.90
11132;DHT22;5620;53.570;9.718;2023-02-28T04:06:35;3.30;99.90
11132;DHT22;5620;53.570;9.718;2023-02-28T04:09:06;3.10;99.90
11132;DHT22;5620;53.570;9.718;2023-02-28T04:11:51;3.00;99.90
11132;DHT22;5620;53.570;9.718;2023-02-28T04:14:18;2.90;99.90
11132;DHT22;5620;53.570;9.718;2023-02-28T04:16:45;2.70;99.90
11132;DHT22;5620;53.570;9.718;2023-02-28T04:19:12;2.60;99.90
11132;DHT22;5620;53.570;9.718;2023-02-28T04:21:41;2.60;99.90
11132;DHT22;5620;53.570;9.718;2023-02-28T04:24:17;2.50;99.90
11132;DHT22;5620;53.570;9.718;2023-02-28T04:26:47;2.40;99.90
11132;DHT22;5620;53.570;9.718;2023-02-28T04:29:19;2.40;99.90
11132;DHT22;5620;53.570;9.718;2023-02-28T04:31:48;2.30;99.90
11132;DHT22;5620;53.570;9.718;2023-02-28T04:34:13;2.30;99.90
11132;DHT22;5620;53.570;9.718;2023-02-28T04:36:39;2.30;99.90
11132;DHT22;5620;53.570;9.718;2023-02-28T04:39:05;2.20;99.90
11132;DHT22;5620;53.570;9.718;2023-02-28T04:41:31;2.30;99.90
11132;DHT22;5620;53.570;9.718;2023-02-28T04:43:59;2.30;99.90
11132;DHT22;5620;53.570;9.718;2023-02-28T04:46:29;2.30;99.90
11132;DHT22;5620;53.570;9.718;2023-02-28T04:48:56;2.30;99.90
11132;DHT22;5620;53.570;9.718;2023-02-28T04:51:22;2.30;99.90
11132;DHT22;5620;53.570;9.718;2023-02-28T04:53:49;2.30;99.90
11132;DHT22;5620;53.570;9.718;2023-02-28T04:56:17;2.30;99.90
11132;DHT22;5620;53.570;9.718;2023-02-28T04:58:48;2.30;99.90
11132;DHT22;5620;53.570;9.718;2023-02-28T05:01:29;2.40;99.90
11132;DHT22;5620;53.570;9.718;2023-02-28T05:04:00;2.20;99.90
11132;DHT22;5620;53.570;9.718;2023-02-28T05:06:30;2.20;99.90
11132;DHT22;5620;53.570;9.718;2023-02-28T05:08:58;2.10;99.90
11132;DHT22;5620;53.570;9.718;2023-02-28T05:11:30;2.10;99.90
11132;DHT22;5620;53.570;9.718;2023-02-28T05:14:12;2.00;99.90
11132;DHT22;5620;53.570;9.718;2023-02-28T05:16:38;1.90;99.90
11132;DHT22;5620;53.570;9.718;2023-02-28T05:19:04;1.80;99.90
11132;DHT22;5620;53.570;9.718;2023-02-28T05:24:17;1.70;99.90
11132;DHT22;5620;53.570;9.718;2023-02-28T05:26:45;1.70;99.90
11132;DHT22;5620;53.570;9.718;2023-02-28T05:29:12;1.60;99.90
11132;DHT22;5620;53.570;9.718;2023-02-28T05:31:39;1.60;99.90
11132;DHT22;5620;53.570;9.718;2023-02-28T05:34:08;1.50;99.90
11132;DHT22;5620;53.570;9.718;2023-02-28T05:36:38;1.50;99.90
11132;DHT22;5620;53.570;9.718;2023-02-28T05:39:06;1.50;99.90
11132;DHT22;5620;53.570;9.718;2023-02-28T05:41:32;1.40;99.90
11132;DHT22;5620;53.570;9.718;2023-02-28T05:43:58;1.40;99.90
11132;DHT22;5620;53.570;9.718;2023-02-28T05:46:25;1.40;99.90
11132;DHT22;5620;53.570;9.718;2023-02-28T05:48:51;1.30;99.90
11132;DHT22;5620;53.570;9.718;2023-02-28T05:51:18;1.30;99.90
11132;DHT22;5620;53.570;9.718;2023-02-28T05:53:48;1.30;99.90
11132;DHT22;5620;53.570;9.718;2023-02-28T05:56:13;1.30;99.90
11132;DHT22;5620;53.570;9.718;2023-02-28T05:58:39;1.30;99.90
11132;DHT22;5620;53.570;9.718;2023-02-28T06:01:40;1.30;99.90
11132;DHT22;5620;53.570;9.718;2023-02-28T06:04:09;1.20;99.90
11132;DHT22;5620;53.570;9.718;2023-02-28T06:06:37;1.20;99.90
11132;DHT22;5620;53.570;9.718;2023-02-28T06:09:04;1.20;99.90
11132;DHT22;5620;53.570;9.718;2023-02-28T06:11:30;1.20;99.90
11132;DHT22;5620;53.570;9.718;2023-02-28T06:13:58;1.20;99.90
11132;DHT22;5620;53.570;9.718;2023-02-28T06:16:25;1.20;99.90
11132;DHT22;5620;53.570;9.718;2023-02-28T06:18:52;1.20;99.90
11132;DHT22;5620;53.570;9.718;2023-02-28T06:21:18;1.20;1.00
11132;DHT22;5620;53.570;9.718;2023-02-28T06:23:46;1.20;1.00
11132;DHT22;5620;53.570;9.718;2023-02-28T06:26:11;1.30;1.00
11132;DHT22;5620;53.570;9.718;2023-02-28T06:28:38;1.30;1.00
11132;DHT22;5620;53.570;9.718;2023-02-28T06:31:10;1.30;1.00
11132;DHT22;5620;53.570;9.718;2023-02-28T06:33:38;1.40;1.00
11132;DHT22;5620;53.570;9.718;2023-02-28T06:36:05;1.40;1.00
11132;DHT22;5620;53.570;9.718;2023-02-28T06:38:34;1.40;1.00
11132;DHT22;5620;53.570;9.718;2023-02-28T06:41:01;1.50;1.00
11132;DHT22;5620;53.570;9.718;2023-02-28T06:43:31;1.60;1.00
11132;DHT22;5620;53.570;9.718;2023-02-28T06:46:00;1.60;1.00
11132;DHT22;5620;53.570;9.718;2023-02-28T06:48:28;1.70;1.00
11132;DHT22;5620;53.570;9.718;2023-02-28T06:51:17;1.70;1.00
11132;DHT22;5620;53.570;9.718;2023-02-28T06:53:44;1.80;1.00
11132;DHT22;5620;53.570;9.718;2023-02-28T06:56:13;1.90;1.00
11132;DHT22;5620;53.570;9.718;2023-02-28T06:58:39;1.90;1.00
11132;DHT22;5620;53.570;9.718;2023-02-28T07:01:05;2.00;1.00
11132;DHT22;5620;53.570;9.718;2023-02-28T07:03:32;2.00;1.00
11132;DHT22;5620;53.570;9.718;2023-02-28T07:05:59;2.10;1.00
11132;DHT22;5620;53.570;9.718;2023-02-28T07:08:26;2.20;1.00
11132;DHT22;5620;53.570;9.718;2023-02-28T07:10:54;2.30;1.00
11132;DHT22;5620;53.570;9.718;2023-02-28T07:13:22;2.40;1.00
11132;DHT22;5620;53.570;9.718;2023-02-28T07:16:00;2.40;1.00
11132;DHT22;5620;53.570;9.718;2023-02-28T07:18:28;2.50;1.00
11132;DHT22;5620;53.570;9.718;2023-02-28T07:20:54;2.60;1.00
11132;DHT22;5620;53.570;9.718;2023-02-28T07:23:21;2.70;1.00
11132;DHT22;5620;53.570;9.718;2023-02-28T07:25:47;2.80;1.00
11132;DHT22;5620;53.570;9.718;2023-02-28T07:28:15;2.80;1.00
11132;DHT22;5620;53.570;9.718;2023-02-28T07:30:42;3.00;1.00
11132;DHT22;5620;53.570;9.718;2023-02-28T07:33:10;3.00;1.00
11132;DHT22;5620;53.570;9.718;2023-02-28T07:35:37;3.00;1.00
11132;DHT22;5620;53.570;9.718;2023-02-28T07:38:03;3.10;1.00
11132;DHT22;5620;53.570;9.718;2023-02-28T07:40:31;3.20;1.00
11132;DHT22;5620;53.570;9.718;2023-02-28T07:43:00;3.20;1.00
11132;DHT22;5620;53.570;9.718;2023-02-28T07:45:27;3.30;1.00
11132;DHT22;5620;53.570;9.718;2023-02-28T07:47:55;3.40;1.00
11132;DHT22;5620;53.570;9.718;2023-02-28T07:50:23;3.50;1.00
11132;DHT22;5620;53.570;9.718;2023-02-28T07:52:49;3.50;1.00
11132;DHT22;5620;53.570;9.718;2023-02-28T07:55:17;3.60;1.00
11132;DHT22;5620;53.570;9.718;2023-02-28T07:57:43;3.60;1.00
11132;DHT22;5620;53.570;9.718;2023-02-28T08:00:11;3.60;1.00
11132;DHT22;5620;53.570;9.718;2023-02-28T08:02:38;3.70;1.00
11132;DHT22;5620;53.570;9.718;2023-02-28T08:05:06;3.70;1.00
11132;DHT22;5620;53.570;9.718;2023-02-28T08:07:33;3.80;1.00
11132;DHT22;5620;53.570;9.718;2023-02-28T08:10:00;3.80;1.00
11132;DHT22;5620;53.570;9.718;2023-02-28T08:12:26;3.90;1.00
11132;DHT22;5620;53.570;9.718;2023-02-28T08:14:54;4.00;1.00
11132;DHT22;5620;53.570;9.718;2023-02-28T08:17:20;4.10;1.00
11132;DHT22;5620;53.570;9.718;2023-02-28T08:19:46;4.10;1.00
11132;DHT22;5620;53.570;9.718;2023-02-28T08:22:13;4.20;1.00
11132;DHT22;5620;53.570;9.718;2023-02-28T08:24:41;4.30;1.00
11132;DHT22;5620;53.570;9.718;2023-02-28T08:27:07;4.20;1.00
11132;DHT22;5620;53.570;9.718;2023-02-28T08:29:33;4.30;1.00
11132;DHT22;5620;53.570;9.718;2023-02-28T08:32:00;4.40;1.00
11132;DHT22;5620;53.570;9.718;2023-02-28T08:34:27;4.40;1.00
11132;DHT22;5620;53.570;9.718;2023-02-28T08:36:56;4.40;1.00
11132;DHT22;5620;53.570;9.718;2023-02-28T08:39:23;4.50;1.00
11132;DHT22;5620;53.570;9.718;2023-02-28T08:41:51;4.60;1.00
11132;DHT22;5620;53.570;9.718;2023-02-28T08:44:18;4.70;1.00
11132;DHT22;5620;53.570;9.718;2023-02-28T08:46:43;4.80;1.00
11132;DHT22;5620;53.570;9.718;2023-02-28T08:49:10;4.80;1.00
11132;DHT22;5620;53.570;9.718;2023-02-28T08:51:36;4.90;1.00
11132;DHT22;5620;53.570;9.718;2023-02-28T08:54:02;4.90;1.00
11132;DHT22;5620;53.570;9.718;2023-02-28T08:56:29;4.90;1.00
11132;DHT22;5620;53.570;9.718;2023-02-28T08:58:56;4.80;1.00
11132;DHT22;5620;53.570;9.718;2023-02-28T09:01:25;4.80;1.00
11132;DHT22;5620;53.570;9.718;2023-02-28T09:03:51;4.90;1.00
11132;DHT22;5620;53.570;9.718;2023-02-28T09:06:19;5.00;1.00
11132;DHT22;5620;53.570;9.718;2023-02-28T09:08:45;5.00;1.00
11132;DHT22;5620;53.570;9.718;2023-02-28T09:11:13;5.10;99.90
11132;DHT22;5620;53.570;9.718;2023-02-28T09:13:39;5.20;99.90
11132;DHT22;5620;53.570;9.718;2023-02-28T09:16:07;5.30;99.90
11132;DHT22;5620;53.570;9.718;2023-02-28T09:18:39;5.30;99.90
11132;DHT22;5620;53.570;9.718;2023-02-28T09:21:10;5.30;99.90
11132;DHT22;5620;53.570;9.718;2023-02-28T09:23:41;5.30;99.90
11132;DHT22;5620;53.570;9.718;2023-02-28T09:26:08;5.40;99.90
11132;DHT22;5620;53.570;9.718;2023-02-28T09:28:40;5.40;99.90
11132;DHT22;5620;53.570;9.718;2023-02-28T09:31:05;5.50;99.90
11132;DHT22;5620;53.570;9.718;2023-02-28T09:33:35;5.50;99.90
11132;DHT22;5620;53.570;9.718;2023-02-28T09:36:02;5.60;99.90
11132;DHT22;5620;53.570;9.718;2023-02-28T09:38:29;5.70;99.90
11132;DHT22;5620;53.570;9.718;2023-02-28T09:41:17;5.80;99.90
11132;DHT22;5620;53.570;9.718;2023-02-28T09:43:49;5.80;99.90
11132;DHT22;5620;53.570;9.718;2023-02-28T09:46:39;5.90;99.90
11132;DHT22;5620;53.570;9.718;2023-02-28T09:49:13;6.00;99.90
11132;DHT22;5620;53.570;9.718;2023-02-28T09:52:51;6.10;99.90
11132;DHT22;5620;53.570;9.718;2023-02-28T09:54:48;6.30;99.90
11132;DHT22;5620;53.570;9.718;2023-02-28T09:57:40;6.50;99.90
11132;DHT22;5620;53.570;9.718;2023-02-28T10:03:27;6.80;99.90
11132;DHT22;5620;53.570;9.718;2023-02-28T10:06:12;7.00;99.90
11132;DHT22;5620;53.570;9.718;2023-02-28T10:08:45;7.20;99.90
11132;DHT22;5620;53.570;9.718;2023-02-28T10:11:18;7.30;99.90
11132;DHT22;5620;53.570;9.718;2023-02-28T10:14:01;7.60;99.90
11132;DHT22;5620;53.570;9.718;2023-02-28T10:16:45;7.80;99.90
11132;DHT22;5620;53.570;9.718;2023-02-28T10:22:08;8.30;99.90
11132;DHT22;5620;53.570;9.718;2023-02-28T10:24:44;8.50;99.90
11132;DHT22;5620;53.570;9.718;2023-02-28T10:29:46;8.90;99.90
11132;DHT22;5620;53.570;9.718;2023-02-28T10:32:18;8.90;99.90
11132;DHT22;5620;53.570;9.718;2023-02-28T10:35:10;9.10;99.90
11132;DHT22;5620;53.570;9.718;2023-02-28T10:37:42;9.20;99.90
11132;DHT22;5620;53.570;9.718;2023-02-28T10:40:33;9.30;99.90
11132;DHT22;5620;53.570;9.718;2023-02-28T10:43:21;9.50;99.90
11132;DHT22;5620;53.570;9.718;2023-02-28T10:49:23;10.00;99.90
11132;DHT22;5620;53.570;9.718;2023-02-28T10:51:52;10.30;99.90
11132;DHT22;5620;53.570;9.718;2023-02-28T10:54:33;10.40;99.90
11132;DHT22;5620;53.570;9.718;2023-02-28T10:57:27;10.70;99.90
11132;DHT22;5620;53.570;9.718;2023-02-28T11:02:44;11.10;99.90
11132;DHT22;5620;53.570;9.718;2023-02-28T11:05:29;11.70;99.90
11132;DHT22;5620;53.570;9.718;2023-02-28T11:08:16;12.70;96.30
11132;DHT22;5620;53.570;9.718;2023-02-28T11:10:53;14.00;88.10
11132;DHT22;5620;53.570;9.718;2023-02-28T11:13:35;15.40;72.90
11132;DHT22;5620;53.570;9.718;2023-02-28T11:16:10;17.10;49.50
11132;DHT22;5620;53.570;9.718;2023-02-28T11:18:44;18.70;11.20
11132;DHT22;5620;53.570;9.718;2023-02-28T11:21:19;20.30;1.00
11132;DHT22;5620;53.570;9.718;2023-02-28T11:23:47;21.40;1.00
11132;DHT22;5620;53.570;9.718;2023-02-28T11:26:34;22.60;1.00
11132;DHT22;5620;53.570;9.718;2023-02-28T11:29:11;23.80;1.00
11132;DHT22;5620;53.570;9.718;2023-02-28T11:31:39;24.80;1.00
11132;DHT22;5620;53.570;9.718;2023-02-28T11:34:24;25.70;1.00
11132;DHT22;5620;53.570;9.718;2023-02-28T11:36:54;26.70;1.00
11132;DHT22;5620;53.570;9.718;2023-02-28T11:39:23;27.60;1.00
11132;DHT22;5620;53.570;9.718;2023-02-28T11:42:19;28.00;1.00
11132;DHT22;5620;53.570;9.718;2023-02-28T11:47:57;29.10;1.00
11132;DHT22;5620;53.570;9.718;2023-02-28T11:51:03;29.60;1.00
11132;DHT22;5620;53.570;9.718;2023-02-28T11:53:58;29.60;1.00
11132;DHT22;5620;53.570;9.718;2023-02-28T11:56:38;30.10;1.00
11132;DHT22;5620;53.570;9.718;2023-02-28T12:07:38;31.20;1.00
11132;DHT22;5620;53.570;9.718;2023-02-28T12:10:30;31.20;1.00
11132;DHT22;5620;53.570;9.718;2023-02-28T12:24:00;31.90;1.00
11132;DHT22;5620;53.570;9.718;2023-02-28T12:26:41;32.10;1.00
11132;DHT22;5620;53.570;9.718;2023-02-28T12:29:34;32.10;1.00
11132;DHT22;5620;53.570;9.718;2023-02-28T12:32:39;32.10;1.00
11132;DHT22;5620;53.570;9.718;2023-02-28T12:35:26;31.30;1.00
11132;DHT22;5620;53.570;9.718;2023-02-28T12:40:34;26.20;1.00
11132;DHT22;5620;53.570;9.718;2023-02-28T12:43:13;23.60;1.00
11132;DHT22;5620;53.570;9.718;2023-02-28T12:45:59;21.40;1.00
11132;DHT22;5620;53.570;9.718;2023-02-28T12:48:48;19.80;1.00
11132;DHT22;5620;53.570;9.718;2023-02-28T12:51:18;19.40;1.00
11132;DHT22;5620;53.570;9.718;2023-02-28T12:59:51;25.30;1.00
11132;DHT22;5620;53.570;9.718;2023-02-28T13:06:02;28.70;1.00
11132;DHT22;5620;53.570;9.718;2023-02-28T13:14:06;32.10;1.00
11132;DHT22;5620;53.570;9.718;2023-02-28T13:17:11;32.40;1.00
11132;DHT22;5620;53.570;9.718;2023-02-28T13:19:57;33.00;1.00
11132;DHT22;5620;53.570;9.718;2023-02-28T13:25:49;33.60;1.00
11132;DHT22;5620;53.570;9.718;2023-02-28T13:27:51;33.60;1.00
11132;DHT22;5620;53.570;9.718;2023-02-28T13:36:27;34.10;1.00
11132;DHT22;5620;53.570;9.718;2023-02-28T13:38:58;34.20;1.00
11132;DHT22;5620;53.570;9.718;2023-02-28T13:41:44;34.40;1.00
11132;DHT22;5620;53.570;9.718;2023-02-28T13:44:23;34.40;1.00
11132;DHT22;5620;53.570;9.718;2023-02-28T13:52:26;33.80;1.00
11132;DHT22;5620;53.570;9.718;2023-02-28T14:06:52;34.70;1.00
11132;DHT22;5620;53.570;9.718;2023-02-28T14:09:45;34.30;1.00
11132;DHT22;5620;53.570;9.718;2023-02-28T14:18:29;33.70;1.00
11132;DHT22;5620;53.570;9.718;2023-02-28T14:21:14;33.40;1.00
11132;DHT22;5620;53.570;9.718;2023-02-28T14:27:04;32.30;1.00
11132;DHT22;5620;53.570;9.718;2023-02-28T14:37:46;27.20;1.00
11132;DHT22;5620;53.570;9.718;2023-02-28T14:40:37;25.80;1.00
11132;DHT22;5620;53.570;9.718;2023-02-28T14:43:16;24.80;1.00
11132;DHT22;5620;53.570;9.718;2023-02-28T14:45:57;24.20;1.00
11132;DHT22;5620;53.570;9.718;2023-02-28T14:48:23;23.50;1.00
11132;DHT22;5620;53.570;9.718;2023-02-28T14:50:59;22.80;1.00
11132;DHT22;5620;53.570;9.718;2023-02-28T14:53:35;22.00;1.00
11132;DHT22;5620;53.570;9.718;2023-02-28T14:56:02;21.90;1.00
11132;DHT22;5620;53.570;9.718;2023-02-28T14:58:36;22.10;1.00
11132;DHT22;5620;53.570;9.718;2023-02-28T15:01:04;22.30;1.00
11132;DHT22;5620;53.570;9.718;2023-02-28T15:04:06;22.70;1.00
11132;DHT22;5620;53.570;9.718;2023-02-28T15:06:38;22.40;1.00
11132;DHT22;5620;53.570;9.718;2023-02-28T15:11:52;23.10;1.00
11132;DHT22;5620;53.570;9.718;2023-02-28T15:14:21;24.20;1.00
11132;DHT22;5620;53.570;9.718;2023-02-28T15:17:02;24.80;1.00
11132;DHT22;5620;53.570;9.718;2023-02-28T15:19:36;25.40;1.00
11132;DHT22;5620;53.570;9.718;2023-02-28T15:22:17;25.60;1.00
11132;DHT22;5620;53.570;9.718;2023-02-28T15:24:50;24.50;1.00
11132;DHT22;5620;53.570;9.718;2023-02-28T15:30:20;20.80;1.00
11132;DHT22;5620;53.570;9.718;2023-02-28T15:33:03;18.80;1.00
11132;DHT22;5620;53.570;9.718;2023-02-28T15:35:32;17.10;1.00
11132;DHT22;5620;53.570;9.718;2023-02-28T15:40:58;14.70;1.00
11132;DHT22;5620;53.570;9.718;2023-02-28T15:46:13;12.80;8.90
11132;DHT22;5620;53.570;9.718;2023-02-28T15:48:58;12.10;15.20
11132;DHT22;5620;53.570;9.718;2023-02-28T15:51:37;11.60;20.10
11132;DHT22;5620;53.570;9.718;2023-02-28T15:54:06;11.10;25.20
11132;DHT22;5620;53.570;9.718;2023-02-28T15:56:51;10.70;28.20
11132;DHT22;5620;53.570;9.718;2023-02-28T15:59:26;10.40;32.40
11132;DHT22;5620;53.570;9.718;2023-02-28T16:02:15;10.10;36.40
11132;DHT22;5620;53.570;9.718;2023-02-28T16:07:40;9.60;42.90
11132;DHT22;5620;53.570;9.718;2023-02-28T16:10:12;9.40;45.80
11132;DHT22;5620;53.570;9.718;2023-02-28T16:12:41;9.20;48.10
11132;DHT22;5620;53.570;9.718;2023-02-28T16:15:45;9.10;49.70
11132;DHT22;5620;53.570;9.718;2023-02-28T16:18:13;8.90;53.20
11132;DHT22;5620;53.570;9.718;2023-02-28T16:20:40;8.70;53.70
11132;DHT22;5620;53.570;9.718;2023-02-28T16:23:07;8.70;55.40
11132;DHT22;5620;53.570;9.718;2023-02-28T16:25:45;8.50;68.20
11132;DHT22;5620;53.570;9.718;2023-02-28T16:30:46;8.20;60.50
11132;DHT22;5620;53.570;9.718;2023-02-28T16:33:13;8.10;60.50
11132;DHT22;5620;53.570;9.718;2023-02-28T16:35:40;8.10;61.40
11132;DHT22;5620;53.570;9.718;2023-02-28T16:38:08;7.90;62.30
11132;DHT22;5620;53.570;9.718;2023-02-28T16:40:36;7.80;63.40
11132;DHT22;5620;53.570;9.718;2023-02-28T16:43:07;7.70;64.10
11132;DHT22;5620;53.570;9.718;2023-02-28T16:45:37;7.60;65.00
11132;DHT22;5620;53.570;9.718;2023-02-28T16:48:07;7.50;65.50
11132;DHT22;5620;53.570;9.718;2023-02-28T16:50:34;7.40;66.30
11132;DHT22;5620;53.570;9.718;2023-02-28T16:53:00;7.20;67.10
11132;DHT22;5620;53.570;9.718;2023-02-28T16:55:28;7.20;67.70
11132;DHT22;5620;53.570;9.718;2023-02-28T16:58:00;7.00;68.50
11132;DHT22;5620;53.570;9.718;2023-02-28T17:00:29;6.90;69.30
11132;DHT22;5620;53.570;9.718;2023-02-28T17:02:58;6.70;70.20
11132;DHT22;5620;53.570;9.718;2023-02-28T17:05:36;6.60;71.40
11132;DHT22;5620;53.570;9.718;2023-02-28T17:08:05;6.40;72.10
11132;DHT22;5620;53.570;9.718;2023-02-28T17:10:32;6.20;73.00
11132;DHT22;5620;53.570;9.718;2023-02-28T17:12:59;6.00;73.40
11132;DHT22;5620;53.570;9.718;2023-02-28T17:15:26;5.90;74.50
11132;DHT22;5620;53.570;9.718;2023-02-28T17:17:53;5.80;74.80
11132;DHT22;5620;53.570;9.718;2023-02-28T17:20:24;5.70;75.90
11132;DHT22;5620;53.570;9.718;2023-02-28T17:22:54;5.50;76.10
11132;DHT22;5620;53.570;9.718;2023-02-28T17:25:27;5.40;76.90
11132;DHT22;5620;53.570;9.718;2023-02-28T17:27:54;5.30;77.30
11132;DHT22;5620;53.570;9.718;2023-02-28T17:30:38;5.10;77.70
11132;DHT22;5620;53.570;9.718;2023-02-28T17:33:04;5.00;78.10
11132;DHT22;5620;53.570;9.718;2023-02-28T17:35:31;5.00;78.70
11132;DHT22;5620;53.570;9.718;2023-02-28T17:37:59;4.80;79.00
11132;DHT22;5620;53.570;9.718;2023-02-28T17:40:27;4.80;79.40
11132;DHT22;5620;53.570;9.718;2023-02-28T17:42:55;4.70;79.90
11132;DHT22;5620;53.570;9.718;2023-02-28T17:45:22;4.60;79.60
11132;DHT22;5620;53.570;9.718;2023-02-28T17:47:50;4.60;80.20
11132;DHT22;5620;53.570;9.718;2023-02-28T17:50:21;4.50;80.20
11132;DHT22;5620;53.570;9.718;2023-02-28T17:52:48;4.40;80.80
11132;DHT22;5620;53.570;9.718;2023-02-28T17:55:19;4.40;81.20
11132;DHT22;5620;53.570;9.718;2023-02-28T17:57:46;4.30;81.50
11132;DHT22;5620;53.570;9.718;2023-02-28T18:00:17;4.20;81.50
11132;DHT22;5620;53.570;9.718;2023-02-28T18:02:43;4.20;81.40
11132;DHT22;5620;53.570;9.718;2023-02-28T18:05:12;4.10;82.10
11132;DHT22;5620;53.570;9.718;2023-02-28T18:07:41;4.00;82.00
11132;DHT22;5620;53.570;9.718;2023-02-28T18:10:16;4.00;83.20
11132;DHT22;5620;53.570;9.718;2023-02-28T18:12:43;3.90;82.40
11132;DHT22;5620;53.570;9.718;2023-02-28T18:15:09;3.90;82.70
11132;DHT22;5620;53.570;9.718;2023-02-28T18:17:36;3.90;82.30
11132;DHT22;5620;53.570;9.718;2023-02-28T18:20:03;3.90;82.60
11132;DHT22;5620;53.570;9.718;2023-02-28T18:22:29;3.80;82.80
11132;DHT22;5620;53.570;9.718;2023-02-28T18:24:56;3.80;82.80
11132;DHT22;5620;53.570;9.718;2023-02-28T18:27:22;3.80;83.10
11132;DHT22;5620;53.570;9.718;2023-02-28T18:29:50;3.80;91.50
11132;DHT22;5620;53.570;9.718;2023-02-28T18:32:18;3.70;82.90
11132;DHT22;5620;53.570;9.718;2023-02-28T18:34:45;3.70;83.00
11132;DHT22;5620;53.570;9.718;2023-02-28T18:37:12;3.70;83.50
11132;DHT22;5620;53.570;9.718;2023-02-28T18:39:40;3.60;82.80
11132;DHT22;5620;53.570;9.718;2023-02-28T18:42:07;3.60;83.00
11132;DHT22;5620;53.570;9.718;2023-02-28T18:44:36;3.60;83.10
11132;DHT22;5620;53.570;9.718;2023-02-28T18:47:02;3.50;83.60
11132;DHT22;5620;53.570;9.718;2023-02-28T18:49:33;3.50;82.80
11132;DHT22;5620;53.570;9.718;2023-02-28T18:52:02;3.40;83.40
11132;DHT22;5620;53.570;9.718;2023-02-28T18:54:29;3.40;83.40
11132;DHT22;5620;53.570;9.718;2023-02-28T18:56:56;3.30;83.80
11132;DHT22;5620;53.570;9.718;2023-02-28T18:59:24;3.30;83.60
11132;DHT22;5620;53.570;9.718;2023-02-28T19:01:50;3.30;83.80
11132;DHT22;5620;53.570;9.718;2023-02-28T19:04:18;3.30;84.40
11132;DHT22;5620;53.570;9.718;2023-02-28T19:06:46;3.20;84.00
11132;DHT22;5620;53.570;9.718;2023-02-28T19:09:14;3.20;83.70
11132;DHT22;5620;53.570;9.718;2023-02-28T19:11:41;3.10;84.00
11132;DHT22;5620;53.570;9.718;2023-02-28T19:14:09;3.10;84.30
11132;DHT22;5620;53.570;9.718;2023-02-28T19:16:36;3.10;84.70
11132;DHT22;5620;53.570;9.718;2023-02-28T19:19:04;3.00;84.30
11132;DHT22;5620;53.570;9.718;2023-02-28T19:21:31;3.00;84.30